Airfield :
LOGIN :

Register | Disclaimer

   EN    FR    IT 

 










Legend :    VFR   Marginal VFR   IFR   Intensive IFR   Very Intensive IFR
Visi :
Ceiling :
>= 8 km
>= 3000ft
5 to 8 km
1000 to 3000 ft
1500m to 5 km
500 to 1000 ft
800 to 1500m
200 to 500 ft
< 800m
< 200 ft
Symbols :   Thunderstorms  Fog  Heavy snow  Heavy precipitations  Wind > 20 kt
SIGMETs :     Misc.  Thunderstorms  Icing  Turbulence  Mountain Waves  Volcanic Ashes






- Airport Elevation : 3 ft
- IATA code : DHR


EHKD - Den Helder De Kooy

CURRENT METAR :
  • 090918Z AUTO 17011KT 9999 FEW021 SCT025 BKN028 04/03 Q1000 BLU TEMPO 4500 SHRA FEW007 SCT015 SCT018CB BKN020

EXPIRED METARs :
  • 090904Z AUTO 18011KT 6000 -RA BKN015 BKN018 OVC023 04/03 Q1000 WHT TEMPO 4500 SHRA FEW007 SCT015 SCT018CB BKN020
  • 090855Z AUTO 17012KT 140V200 9999 FEW015 SCT019 BKN022 04/03 Q1000 WHT TEMPO 4500 SHRA FEW007 SCT015 SCT018CB BKN020
  • 090838Z AUTO 17012KT 140V200 9999 DZ BKN018 OVC022 04/03 Q1000 WHT TEMPO 4500 SHRA FEW007 SCT015 SCT018CB BKN020
  • 090825Z AUTO 18014KT 9999 BKN021 OVC025 04/03 Q1000 WHT TEMPO 4500 SHRA FEW007 SCT015 SCT018CB BKN020
  • 090757Z AUTO 18012KT 9999 FEW015CB BKN024 BKN034 BKN043 03/02 Q1000 WHT TEMPO 4500 SHRA FEW007 SCT015 SCT018CB BKN020
  • 090755Z AUTO 18012KT 9999 FEW015CB SCT024 BKN032 03/02 Q1000 REDZ WHT TEMPO 4500 SHRA FEW007 SCT015 SCT018CB BKN020
  • 090725Z AUTO 17012KT 9999 -RA FEW015CB SCT017 BKN020 OVC026 03/02 Q0999 RERA REDZ WHT TEMPO 4500 SHRA FEW007 SCT015 SCT018CB BKN020
  • 090707Z AUTO 17012KT 5000 -SHRA FEW015CB BKN023 BKN028 03/02 Q0999 WHT TEMPO 4500 SHRA FEW007 SCT015 SCT018CB BKN020
  • 090655Z AUTO 18013KT 9999 DZ FEW015CB SCT024 BKN032 03/02 Q0999 WHT TEMPO 4500 SHRA FEW007 SCT015 SCT018CB BKN020
  • 090625Z AUTO 17012KT 9999 FEW015CB BKN032 OVC038 03/01 Q0999 BLU TEMPO 4500 SHRA FEW007 SCT015 SCT018CB BKN020

TAF TAF EHKD
Valid from the 09 at 06:00 until the 09 at 18:00 UTC


090535Z 0906/0918 18012KT CAVOK
TEMPO 0906/0911 4500 SHRA FEW007 SCT015 SCT018CB BKN020
BECMG 0909/0912 SCT015 BKN025
TEMPO 0911/0915 4500 SHRA -RA SCT007 BKN010 OVC015 SCT018CB
TEMPO 0915/0918 SCT012 SCT018CB BKN025
BECMG 0915/0918 24005KT FEW015 BKN025



MET'MAP, your aeronautical weather chart ! - Copyright ORBIFLY December 2007 - Disclaimer

ORBIFLY MET'MAP TEAM :

Programming & Development : Alexandra Zaïnal
Concept & original design : Baudouin d'Aumeries
Assistance for programming : Marc-Olivier Méhu
Technical & hardware support : Manuel Goepfert

Contact : metmap@orbifly.com




SOURCES & CREDITS :

   NOAA